createdAt,value
2018-01-28T00:01:26.760Z,11.23
2018-01-28T00:03:53.459Z,14.17
2018-01-28T00:06:19.456Z,17.43
2018-01-28T00:08:45.452Z,12.03
2018-01-28T00:11:11.412Z,12.90
2018-01-28T00:13:38.136Z,11.43
2018-01-28T00:16:04.114Z,10.27
2018-01-28T00:18:30.091Z,9.80
2018-01-28T00:20:56.123Z,11.77
2018-01-28T00:23:22.092Z,12.50
2018-01-28T00:25:48.061Z,11.67
2018-01-28T00:28:14.031Z,12.40
2018-01-28T00:30:40.053Z,12.10
2018-01-28T00:33:05.992Z,15.40
2018-01-28T00:35:31.964Z,13.10
2018-01-28T00:37:57.930Z,12.37
2018-01-28T00:40:23.887Z,11.30
2018-01-28T00:42:49.849Z,14.93
2018-01-28T00:45:15.836Z,14.40
2018-01-28T00:47:41.812Z,12.10
2018-01-28T00:50:07.816Z,13.67
2018-01-28T00:52:34.535Z,13.73
2018-01-28T00:55:00.527Z,15.10
2018-01-28T00:57:26.549Z,14.57
2018-01-28T00:59:53.306Z,17.00
2018-01-28T01:02:19.494Z,17.87
2018-01-28T01:04:45.538Z,13.23
2018-01-28T01:07:11.524Z,14.43
2018-01-28T01:09:37.536Z,17.93
2018-01-28T01:12:04.288Z,17.07
2018-01-28T01:14:31.035Z,17.33
2018-01-28T01:16:57.048Z,21.73
2018-01-28T01:19:23.069Z,14.27
2018-01-28T01:21:49.149Z,17.10
2018-01-28T01:24:16.000Z,14.73
2018-01-28T01:26:42.719Z,18.20
2018-01-28T01:29:08.739Z,15.23
2018-01-28T01:31:34.729Z,16.77
2018-01-28T01:34:00.704Z,15.20
2018-01-28T01:36:26.656Z,12.63
2018-01-28T01:38:52.734Z,14.53
2018-01-28T01:41:18.759Z,15.30
2018-01-28T01:43:44.780Z,15.97
2018-01-28T01:46:10.772Z,15.93
2018-01-28T01:48:36.767Z,17.00
2018-01-28T01:51:04.229Z,19.67
2018-01-28T01:53:30.200Z,15.57
2018-01-28T01:55:56.900Z,15.43
2018-01-28T01:58:22.938Z,16.57
2018-01-28T02:00:49.057Z,15.70
2018-01-28T02:03:15.080Z,15.43
2018-01-28T02:05:41.050Z,15.53
2018-01-28T02:08:07.047Z,14.70
2018-01-28T02:10:33.769Z,15.70
2018-01-28T02:12:59.784Z,14.63
2018-01-28T02:15:25.772Z,15.47
2018-01-28T02:17:51.791Z,13.40
2018-01-28T02:20:17.851Z,13.30
2018-01-28T02:22:43.870Z,11.23
2018-01-28T02:25:09.899Z,13.30
2018-01-28T02:27:35.874Z,16.87
2018-01-28T02:30:01.861Z,15.37
2018-01-28T02:32:27.842Z,10.40
2018-01-28T02:34:53.864Z,10.03
2018-01-28T02:37:19.851Z,10.10
2018-01-28T02:39:45.917Z,8.03
2018-01-28T02:42:12.652Z,7.47
2018-01-28T02:44:38.662Z,11.03
2018-01-28T02:47:04.643Z,6.13
2018-01-28T02:49:31.392Z,11.03
2018-01-28T02:51:58.107Z,7.33
2018-01-28T02:54:24.079Z,7.60
2018-01-28T02:56:50.070Z,6.40
2018-01-28T02:59:16.092Z,5.60
2018-01-28T03:01:42.047Z,3.77
2018-01-28T03:04:15.041Z,5.70
2018-01-28T03:06:41.003Z,4.80
2018-01-28T03:09:07.001Z,4.87
2018-01-28T03:11:32.974Z,3.67
2018-01-28T03:13:58.970Z,5.20
2018-01-28T03:16:24.935Z,6.43
2018-01-28T03:18:50.960Z,4.97
2018-01-28T03:21:16.960Z,9.60
2018-01-28T03:23:42.952Z,6.23
2018-01-28T03:26:08.956Z,5.67
2018-01-28T03:28:34.980Z,6.37
2018-01-28T03:31:00.993Z,5.67
2018-01-28T03:33:27.072Z,5.50
2018-01-28T03:35:53.094Z,6.77
2018-01-28T03:38:19.176Z,4.40
2018-01-28T03:40:45.196Z,7.50
2018-01-28T03:43:11.271Z,5.63
2018-01-28T03:45:37.320Z,7.23
2018-01-28T03:48:04.061Z,5.07
2018-01-28T03:50:30.817Z,5.60
2018-01-28T03:52:57.561Z,5.53
2018-01-28T03:55:24.316Z,6.53
2018-01-28T03:57:50.329Z,7.07
2018-01-28T04:00:16.463Z,5.10
2018-01-28T04:02:42.429Z,4.63
2018-01-28T04:05:09.164Z,5.20
2018-01-28T04:07:36.625Z,7.47
2018-01-28T04:10:02.638Z,6.63
2018-01-28T04:12:28.611Z,7.17
2018-01-28T04:14:54.598Z,4.77
2018-01-28T04:17:20.608Z,5.80
2018-01-28T04:19:47.422Z,4.77
2018-01-28T04:22:14.173Z,6.77
2018-01-28T04:24:40.171Z,6.30
2018-01-28T04:27:06.132Z,5.07
2018-01-28T04:29:32.141Z,4.53
2018-01-28T04:31:58.125Z,6.10
2018-01-28T04:34:24.116Z,7.90
2018-01-28T04:36:50.180Z,4.20
2018-01-28T04:39:16.166Z,9.37
2018-01-28T04:41:42.148Z,4.60
2018-01-28T04:44:08.137Z,5.87
2018-01-28T04:46:34.892Z,5.97
2018-01-28T04:49:00.892Z,5.77
2018-01-28T04:51:26.889Z,5.70
2018-01-28T04:53:52.906Z,4.17
2018-01-28T04:56:18.945Z,4.80
2018-01-28T04:58:45.014Z,4.47
2018-01-28T05:01:11.035Z,5.33
2018-01-28T05:03:37.033Z,5.90
2018-01-28T05:06:03.784Z,9.17
2018-01-28T05:08:30.529Z,5.47
2018-01-28T05:10:57.255Z,6.77
2018-01-28T05:13:23.375Z,5.53
2018-01-28T05:15:50.167Z,6.33
2018-01-28T05:18:16.196Z,6.63
2018-01-28T05:20:42.195Z,6.57
2018-01-28T05:23:08.185Z,5.53
2018-01-28T05:25:34.181Z,5.10
2018-01-28T05:28:00.171Z,6.20
2018-01-28T05:30:26.909Z,5.87
2018-01-28T05:32:52.949Z,6.77
2018-01-28T05:35:18.981Z,5.30
2018-01-28T05:37:45.048Z,4.53
2018-01-28T05:40:11.057Z,9.03
2018-01-28T05:42:37.061Z,6.37
2018-01-28T05:45:03.080Z,6.57
2018-01-28T05:47:29.045Z,5.50
2018-01-28T05:49:55.041Z,3.97
2018-01-28T05:52:21.031Z,7.07
2018-01-28T05:54:47.173Z,3.40
2018-01-28T05:57:13.149Z,3.30
2018-01-28T05:59:39.138Z,5.03
2018-01-28T06:02:05.888Z,3.20
2018-01-28T06:04:32.616Z,6.73
2018-01-28T06:06:58.583Z,4.47
2018-01-28T06:09:24.580Z,3.23
2018-01-28T06:11:50.571Z,4.67
2018-01-28T06:14:17.438Z,4.53
2018-01-28T06:16:44.179Z,2.60
2018-01-28T06:19:10.903Z,3.20
2018-01-28T06:21:36.888Z,4.27
2018-01-28T06:24:02.910Z,2.53
2018-01-28T06:26:29.651Z,3.20
2018-01-28T06:28:55.653Z,2.73
2018-01-28T06:31:21.686Z,1.50
2018-01-28T06:33:47.723Z,3.13
2018-01-28T06:36:13.713Z,1.73
2018-01-28T06:38:39.724Z,3.77
2018-01-28T06:41:05.740Z,2.77
2018-01-28T06:43:31.718Z,1.67
2018-01-28T06:45:58.461Z,2.90
2018-01-28T06:48:25.172Z,1.60
2018-01-28T06:50:51.206Z,1.37
2018-01-28T06:53:17.318Z,1.33
2018-01-28T06:55:43.338Z,2.60
2018-01-28T06:58:10.060Z,3.43
2018-01-28T07:00:36.060Z,3.50
2018-01-28T07:03:02.044Z,1.37
2018-01-28T07:05:28.037Z,1.63
2018-01-28T07:07:54.033Z,1.23
2018-01-28T07:10:20.829Z,1.67
2018-01-28T07:12:46.870Z,1.30
2018-01-28T07:15:12.924Z,3.90
2018-01-28T07:17:38.908Z,1.23
2018-01-28T07:20:04.898Z,1.63
2018-01-28T07:22:30.880Z,1.60
2018-01-28T07:24:56.869Z,1.40
2018-01-28T07:27:23.043Z,1.83
2018-01-28T07:29:49.829Z,1.10
2018-01-28T07:32:15.909Z,1.07
2018-01-28T07:34:42.635Z,1.87
2018-01-28T07:37:08.616Z,1.20
2018-01-28T07:39:35.371Z,0.80
2018-01-28T07:42:02.089Z,1.73
2018-01-28T07:44:28.056Z,0.70
2018-01-28T07:46:54.792Z,2.10
2018-01-28T07:49:21.550Z,0.90
2018-01-28T07:51:48.444Z,1.00
2018-01-28T07:54:14.464Z,1.03
2018-01-28T07:56:41.185Z,0.83
2018-01-28T07:59:07.176Z,1.10
2018-01-28T08:01:33.146Z,1.03
2018-01-28T08:03:59.147Z,0.67
2018-01-28T08:06:25.164Z,1.67
2018-01-28T08:08:51.915Z,1.23
2018-01-28T08:11:30.453Z,1.27
2018-01-28T08:13:58.323Z,2.30
2018-01-28T08:16:25.064Z,1.33
2018-01-28T08:18:51.080Z,2.23
2018-01-28T08:21:17.098Z,1.93
2018-01-28T08:23:43.072Z,0.83
2018-01-28T08:26:09.825Z,0.60
2018-01-28T08:31:37.121Z,0.60
2018-01-28T08:34:03.108Z,0.90
2018-01-28T08:36:29.109Z,1.70
2018-01-28T08:38:55.869Z,0.60
2018-01-28T08:41:22.639Z,0.60
2018-01-28T08:43:48.674Z,0.60
2018-01-28T08:46:15.530Z,0.87
2018-01-28T08:48:41.511Z,2.70
2018-01-28T08:51:07.482Z,0.60
2018-01-28T08:53:34.201Z,1.17
2018-01-28T08:56:00.193Z,0.57
2018-01-28T08:58:26.160Z,4.27
2018-01-28T09:00:52.156Z,0.67
2018-01-28T09:03:18.197Z,0.70
2018-01-28T09:05:44.222Z,0.83
2018-01-28T09:08:10.932Z,0.83
2018-01-28T09:10:36.952Z,0.77
2018-01-28T09:13:02.917Z,1.07
2018-01-28T09:15:28.899Z,0.80
2018-01-28T09:17:54.877Z,0.80
2018-01-28T09:20:20.876Z,0.70
2018-01-28T09:22:46.892Z,0.83
2018-01-28T09:25:12.911Z,0.70
2018-01-28T09:27:39.632Z,1.33
2018-01-28T09:30:05.607Z,1.17
2018-01-28T09:32:32.306Z,1.33
2018-01-28T09:34:58.333Z,1.20
2018-01-28T09:37:24.329Z,1.10
2018-01-28T09:39:51.098Z,1.23
2018-01-28T09:42:17.122Z,0.70
2018-01-28T09:44:43.131Z,2.43
2018-01-28T09:47:09.127Z,2.37
2018-01-28T09:49:35.171Z,0.70
2018-01-28T09:52:01.185Z,1.53
2018-01-28T09:54:27.192Z,0.73
2018-01-28T09:56:53.961Z,0.90
2018-01-28T09:59:19.952Z,1.20
2018-01-28T10:01:46.020Z,1.47
2018-01-28T10:04:12.720Z,1.60
2018-01-28T10:06:38.705Z,3.77
2018-01-28T10:09:05.438Z,0.80
2018-01-28T10:11:32.947Z,0.90
2018-01-28T10:13:58.915Z,1.47
2018-01-28T10:16:24.938Z,1.50
2018-01-28T10:18:50.944Z,0.83
2018-01-28T10:21:16.945Z,0.80
2018-01-28T10:23:43.697Z,1.47
2018-01-28T10:26:09.667Z,0.50
2018-01-28T10:28:36.382Z,3.17
2018-01-28T10:31:02.368Z,0.40
2018-01-28T10:33:28.333Z,0.40
2018-01-28T10:35:54.339Z,0.60
2018-01-28T10:38:20.363Z,1.13
2018-01-28T10:40:46.446Z,0.80
2018-01-28T10:43:13.225Z,0.53
2018-01-28T10:45:39.203Z,0.50
2018-01-28T10:48:05.188Z,1.37
2018-01-28T10:50:31.164Z,0.93
2018-01-28T10:52:57.883Z,1.80
2018-01-28T10:55:23.931Z,0.50
2018-01-28T10:57:49.959Z,0.90
2018-01-28T11:00:16.728Z,0.70
2018-01-28T11:02:43.440Z,0.30
2018-01-28T11:05:09.444Z,4.23
2018-01-28T11:07:35.486Z,0.50
2018-01-28T11:10:01.571Z,1.27
2018-01-28T11:12:27.545Z,0.67
2018-01-28T11:14:54.276Z,0.90
2018-01-28T11:17:20.327Z,0.97
2018-01-28T11:19:47.105Z,0.60
2018-01-28T11:22:13.095Z,1.27
2018-01-28T11:24:39.124Z,0.97
2018-01-28T11:27:05.846Z,0.73
2018-01-28T11:29:31.812Z,1.13
2018-01-28T11:31:57.921Z,0.67
2018-01-28T11:34:23.960Z,0.57
2018-01-28T11:36:49.988Z,1.90
2018-01-28T11:39:16.058Z,2.00
2018-01-28T11:41:42.041Z,0.40
2018-01-28T11:44:08.025Z,1.57
2018-01-28T11:46:34.020Z,1.10
2018-01-28T11:48:59.998Z,0.40
2018-01-28T11:51:25.984Z,0.50
2018-01-28T11:53:52.012Z,0.43
2018-01-28T11:56:18.119Z,0.33
2018-01-28T11:58:44.128Z,0.97
2018-01-28T12:01:10.117Z,1.27
2018-01-28T12:03:36.829Z,0.97
2018-01-28T12:06:02.827Z,0.93
2018-01-28T12:08:28.802Z,0.53
2018-01-28T12:10:54.810Z,0.57
2018-01-28T12:13:20.843Z,2.83
2018-01-28T12:15:47.569Z,1.43
2018-01-28T12:18:13.567Z,0.80
2018-01-28T12:20:39.551Z,0.53
2018-01-28T12:23:05.509Z,0.40
2018-01-28T12:25:31.515Z,0.70
2018-01-28T12:27:57.520Z,0.50
2018-01-28T12:30:23.544Z,0.50
2018-01-28T12:32:49.636Z,2.00
2018-01-28T12:35:15.733Z,0.70
2018-01-28T12:37:41.700Z,0.50
2018-01-28T12:40:07.739Z,0.53
2018-01-28T12:42:33.715Z,2.90
2018-01-28T12:44:59.699Z,2.33
2018-01-28T12:47:26.436Z,0.67
2018-01-28T12:49:53.280Z,1.83
2018-01-28T12:52:19.310Z,0.73
2018-01-28T12:54:45.428Z,2.40
2018-01-28T12:57:11.440Z,1.47
2018-01-28T12:59:37.430Z,1.43
2018-01-28T13:02:04.195Z,0.63
2018-01-28T13:04:30.912Z,1.07
2018-01-28T13:06:56.940Z,2.03
2018-01-28T13:09:22.998Z,2.00
2018-01-28T13:11:49.092Z,0.67
2018-01-28T13:14:15.163Z,1.37
2018-01-28T13:16:41.170Z,2.03
2018-01-28T13:19:07.156Z,1.00
2018-01-28T13:21:33.171Z,0.70
2018-01-28T13:23:59.224Z,1.83
2018-01-28T13:26:25.228Z,1.10
2018-01-28T13:28:51.267Z,0.70
2018-01-28T13:31:17.311Z,1.90
2018-01-28T13:33:44.037Z,0.67
2018-01-28T13:36:10.041Z,0.40
2018-01-28T13:38:36.758Z,0.63
2018-01-28T13:41:02.733Z,0.47
2018-01-28T13:43:29.440Z,1.17
2018-01-28T13:45:55.469Z,1.17
2018-01-28T13:48:21.603Z,0.90
2018-01-28T13:50:47.728Z,4.40
2018-01-28T13:53:13.727Z,1.40
2018-01-28T13:55:40.496Z,2.20
2018-01-28T13:58:06.487Z,0.77
2018-01-28T14:00:32.520Z,0.43
2018-01-28T14:02:58.529Z,0.60
2018-01-28T14:05:24.554Z,0.97
2018-01-28T14:07:50.669Z,1.73
2018-01-28T14:10:17.474Z,0.73
2018-01-28T14:12:43.507Z,1.00
2018-01-28T14:15:09.505Z,1.10
2018-01-28T14:17:35.493Z,0.73
2018-01-28T14:20:01.481Z,0.70
2018-01-28T14:22:27.513Z,0.50
2018-01-28T14:24:54.332Z,0.87
2018-01-28T14:27:20.360Z,2.20
2018-01-28T14:29:47.911Z,0.87
2018-01-28T14:32:13.920Z,0.80
2018-01-28T14:34:39.889Z,1.03
2018-01-28T14:37:05.880Z,0.93
2018-01-28T14:39:32.593Z,1.93
2018-01-28T14:41:58.591Z,0.77
2018-01-28T14:44:24.647Z,0.73
2018-01-28T14:46:50.740Z,1.63
2018-01-28T14:49:17.552Z,1.23
2018-01-28T14:51:43.620Z,1.20
2018-01-28T14:54:09.616Z,0.73
2018-01-28T14:56:35.611Z,1.50
2018-01-28T14:59:01.621Z,0.93
2018-01-28T15:01:27.589Z,1.33
2018-01-28T15:03:53.581Z,1.90
2018-01-28T15:06:19.579Z,0.97
2018-01-28T15:08:45.685Z,0.90
2018-01-28T15:11:11.699Z,0.87
2018-01-28T15:13:37.674Z,1.53
2018-01-28T15:16:03.712Z,1.63
2018-01-28T15:18:29.747Z,1.87
2018-01-28T15:20:55.726Z,1.60
2018-01-28T15:23:21.724Z,1.43
2018-01-28T15:25:47.759Z,1.40
2018-01-28T15:28:13.723Z,1.10
2018-01-28T15:30:39.688Z,1.40
2018-01-28T15:33:05.671Z,1.93
2018-01-28T15:35:31.668Z,0.87
2018-01-28T15:37:57.658Z,1.70
2018-01-28T15:40:23.656Z,0.73
2018-01-28T15:42:50.593Z,0.97
2018-01-28T15:45:17.441Z,0.73
2018-01-28T15:47:43.475Z,1.40
2018-01-28T15:50:09.466Z,0.80
2018-01-28T15:52:35.452Z,1.50
2018-01-28T15:55:01.441Z,1.00
2018-01-28T15:57:27.427Z,2.10
2018-01-28T15:59:53.421Z,3.97
2018-01-28T16:02:19.503Z,1.27
2018-01-28T16:04:45.604Z,1.10
2018-01-28T16:07:11.686Z,2.10
2018-01-28T16:09:38.409Z,3.40
2018-01-28T16:12:04.419Z,1.60
2018-01-28T16:14:30.387Z,1.37
2018-01-28T16:16:56.415Z,0.90
2018-01-28T16:19:22.496Z,1.20
2018-01-28T16:21:48.880Z,1.77
2018-01-28T16:24:14.947Z,3.20
2018-01-28T16:26:40.923Z,1.53
2018-01-28T16:29:07.216Z,4.33
2018-01-28T16:31:33.192Z,1.77
2018-01-28T16:33:59.908Z,1.20
2018-01-28T16:36:25.941Z,1.90
2018-01-28T16:38:52.026Z,1.00
2018-01-28T16:41:18.039Z,1.23
2018-01-28T16:43:44.029Z,1.70
2018-01-28T16:46:10.013Z,1.70
2018-01-28T16:48:36.786Z,1.07
2018-01-28T16:51:02.778Z,1.83
2018-01-28T16:53:28.748Z,0.70
2018-01-28T16:55:54.764Z,1.07
2018-01-28T16:58:20.833Z,0.80
2018-01-28T17:00:46.847Z,0.87
2018-01-28T17:03:12.863Z,1.67
2018-01-28T17:05:38.898Z,1.70
2018-01-28T17:08:04.880Z,1.37
2018-01-28T17:10:31.871Z,1.10
2018-01-28T17:12:57.897Z,1.40
2018-01-28T17:15:23.912Z,1.13
2018-01-28T17:17:50.202Z,2.97
2018-01-28T17:20:16.220Z,2.57
2018-01-28T17:22:42.200Z,2.53
2018-01-28T17:25:08.188Z,4.60
2018-01-28T17:27:34.164Z,4.60
2018-01-28T17:30:00.153Z,2.13
2018-01-28T17:32:26.148Z,2.00
2018-01-28T17:34:52.903Z,2.43
2018-01-28T17:37:18.912Z,3.50
2018-01-28T17:39:44.991Z,2.23
2018-01-28T17:42:11.709Z,3.33
2018-01-28T17:44:37.684Z,2.80
2018-01-28T17:47:04.400Z,1.77
2018-01-28T17:49:30.395Z,1.60
2018-01-28T17:51:56.481Z,2.87
2018-01-28T17:54:22.485Z,1.30
2018-01-28T17:56:48.473Z,1.40
2018-01-28T17:59:15.254Z,1.67
2018-01-28T18:01:41.244Z,1.93
2018-01-28T18:04:07.321Z,1.90
2018-01-28T18:06:33.329Z,2.53
2018-01-28T18:09:00.131Z,2.13
2018-01-28T18:11:26.125Z,2.30
2018-01-28T18:13:52.188Z,2.10
2018-01-28T18:16:18.196Z,4.50
2018-01-28T18:18:44.998Z,2.47
2018-01-28T18:21:11.023Z,3.57
2018-01-28T18:23:36.995Z,1.47
2018-01-28T18:26:02.984Z,2.33
2018-01-28T18:28:28.973Z,2.03
2018-01-28T18:30:54.969Z,1.80
2018-01-28T18:33:20.994Z,3.57
2018-01-28T18:35:47.031Z,2.73
2018-01-28T18:38:13.026Z,2.13
2018-01-28T18:40:39.011Z,2.57
2018-01-28T18:43:05.004Z,2.40
2018-01-28T18:45:30.963Z,2.17
2018-01-28T18:47:56.940Z,1.97
2018-01-28T18:50:22.942Z,7.23
2018-01-28T18:52:48.955Z,1.83
2018-01-28T18:55:14.936Z,3.33
2018-01-28T18:57:41.675Z,3.87
2018-01-28T19:00:07.672Z,3.93
2018-01-28T19:02:33.694Z,2.97
2018-01-28T19:04:59.652Z,3.37
2018-01-28T19:07:25.693Z,2.67
2018-01-28T19:09:51.717Z,2.70
2018-01-28T19:12:17.779Z,3.23
2018-01-28T19:14:43.791Z,2.30
2018-01-28T19:17:09.773Z,1.87
2018-01-28T19:19:35.745Z,2.40
2018-01-28T19:22:01.753Z,3.73
2018-01-28T19:24:28.476Z,3.17
2018-01-28T19:26:54.490Z,1.93
2018-01-28T19:29:20.501Z,1.70
2018-01-28T19:31:46.537Z,2.17
2018-01-28T19:34:12.527Z,3.03
2018-01-28T19:36:38.553Z,1.87
2018-01-28T19:39:04.544Z,2.13
2018-01-28T19:41:30.644Z,2.23
2018-01-28T19:43:57.444Z,1.93
2018-01-28T19:46:23.419Z,2.13
2018-01-28T19:48:49.448Z,1.97
2018-01-28T19:51:15.486Z,3.40
2018-01-28T19:53:41.456Z,2.00
2018-01-28T19:56:08.181Z,1.40
2018-01-28T19:58:34.159Z,1.73
2018-01-28T20:01:00.149Z,2.37
2018-01-28T20:03:26.129Z,1.83
2018-01-28T20:05:52.131Z,2.10
2018-01-28T20:08:18.907Z,2.97
2018-01-28T20:10:45.661Z,2.20
2018-01-28T20:13:12.425Z,1.60
2018-01-28T20:15:38.409Z,2.73
2018-01-28T20:18:04.393Z,2.40
2018-01-28T20:20:31.105Z,2.17
2018-01-28T20:22:57.105Z,2.43
2018-01-28T20:25:23.102Z,2.10
2018-01-28T20:27:49.127Z,2.50
2018-01-28T20:30:15.130Z,2.93
2018-01-28T20:32:41.108Z,2.23
2018-01-28T20:35:07.832Z,2.93
2018-01-28T20:37:33.802Z,2.23
2018-01-28T20:40:00.513Z,2.60
2018-01-28T20:42:26.525Z,1.50
2018-01-28T20:44:52.620Z,1.50
2018-01-28T20:47:19.525Z,3.00
2018-01-28T20:49:45.556Z,2.00
2018-01-28T20:52:11.572Z,1.23
2018-01-28T20:54:37.533Z,1.90
2018-01-28T20:57:03.537Z,1.40
2018-01-28T20:59:30.265Z,1.90
2018-01-28T21:01:56.232Z,2.07
2018-01-28T21:04:22.241Z,1.77
2018-01-28T21:06:48.409Z,3.20
2018-01-28T21:09:14.462Z,1.40
2018-01-28T21:11:40.477Z,1.60
2018-01-28T21:14:07.254Z,1.80
2018-01-28T21:16:33.173Z,1.33
2018-01-28T21:18:59.166Z,2.17
2018-01-28T21:21:25.898Z,2.23
2018-01-28T21:23:51.954Z,1.40
2018-01-28T21:26:17.983Z,2.77
2018-01-28T21:28:43.998Z,1.57
2018-01-28T21:31:09.949Z,1.60
2018-01-28T21:33:35.926Z,3.33
2018-01-28T21:36:02.656Z,1.70
2018-01-28T21:38:28.659Z,1.63
2018-01-28T21:40:54.632Z,1.97
2018-01-28T21:43:20.638Z,1.73
2018-01-28T21:45:46.672Z,1.47
2018-01-28T21:48:12.681Z,1.93
2018-01-28T21:50:38.661Z,1.43
2018-01-28T21:53:04.652Z,1.33
2018-01-28T21:55:30.620Z,1.87
2018-01-28T21:57:56.616Z,1.50
2018-01-28T22:00:22.705Z,2.10
2018-01-28T22:02:48.727Z,1.03
2018-01-28T22:05:14.774Z,1.77
2018-01-28T22:07:42.290Z,1.40
2018-01-28T22:10:08.301Z,2.80
2018-01-28T22:12:35.037Z,1.37
2018-01-28T22:15:01.809Z,2.20
2018-01-28T22:17:28.554Z,1.40
2018-01-28T22:19:54.558Z,1.40
2018-01-28T22:22:20.591Z,1.27
2018-01-28T22:24:46.598Z,1.77
2018-01-28T22:27:12.585Z,1.30
2018-01-28T22:29:38.588Z,2.37
2018-01-28T22:32:04.548Z,2.30
2018-01-28T22:34:30.588Z,1.50
2018-01-28T22:36:56.552Z,2.13
2018-01-28T22:39:23.316Z,2.10
2018-01-28T22:41:50.060Z,1.27
2018-01-28T22:44:16.084Z,1.33
2018-01-28T22:46:42.792Z,0.93
2018-01-28T22:49:08.792Z,1.30
2018-01-28T22:51:35.491Z,1.23
2018-01-28T22:54:01.480Z,1.97
2018-01-28T22:56:28.175Z,1.53
2018-01-28T22:58:54.148Z,1.20
2018-01-28T23:01:20.199Z,1.30
2018-01-28T23:03:46.245Z,0.90
2018-01-28T23:06:12.984Z,0.80
2018-01-28T23:08:38.966Z,0.80
2018-01-28T23:11:05.003Z,1.23
2018-01-28T23:13:31.021Z,1.40
2018-01-28T23:15:57.000Z,1.33
2018-01-28T23:18:23.043Z,1.03
2018-01-28T23:20:49.064Z,0.77
2018-01-28T23:23:15.097Z,1.10
2018-01-28T23:25:41.060Z,0.87
2018-01-28T23:28:08.540Z,2.43
2018-01-28T23:30:34.537Z,1.00
2018-01-28T23:33:00.520Z,0.83
2018-01-28T23:35:27.233Z,1.67
2018-01-28T23:37:53.224Z,1.00
2018-01-28T23:40:19.954Z,1.00
2018-01-28T23:42:45.952Z,0.83
2018-01-28T23:45:11.935Z,1.57
2018-01-28T23:47:38.647Z,0.83
2018-01-28T23:50:04.664Z,1.37
2018-01-28T23:52:30.629Z,0.87
2018-01-28T23:54:56.605Z,0.80
2018-01-28T23:57:23.349Z,1.03
2018-01-28T23:59:50.112Z,0.70
